Augusta, WI

5:32 AM CST on December 04, 2016 (GMT -0600)
Fall Creek School District | | Change Station
Active Advisory: Winter Weather Advisory

Elev 945 ft 44.76 °N, 91.27 °W | Updated 15 minutes ago

Light Snow
Light Snow Mist
29.3 °F
Feels Like 24 °F
N
4.5
Wind Variable Wind from ESE
Gusts 6.8 mph

Today
High -- | Low -- °F
--% Chance of Precip.
Yesterday
High -- | Low -- °F
Precip. -- in
Pressure 30.05 in
Visibility 1.8 miles
Clouds Few 700 ft
Mostly Cloudy 2700 ft
Overcast 4500 ft
Windchill 24 °F
Dew Point 28 °F
Humidity 95%
Rainfall Not available.
Snow Depth Not available.
7:25 AM 4:24 PM
Waxing Crescent, 22% visible
SPECI KEAU 041126Z 12006KT 1 3/4SM -SN BR FEW007 BKN027 OVC045 M01/M02 A3005 RMK AO2 P0000 T10111022
Pressure 30.05 in
Visibility 1.8 miles
Clouds Few 700 ft
Mostly Cloudy 2700 ft
Overcast 4500 ft
Windchill 24 °F
Dew Point 28 °F
Humidity 95%
Rainfall Not available.
Snow Depth Not available.
7:25 AM 4:24 PM
Waxing Crescent, 22% visible
SPECI KEAU 041126Z 12006KT 1 3/4SM -SN BR FEW007 BKN027 OVC045 M01/M02 A3005 RMK AO2 P0000 T10111022

10-Day Weather Forecast

Almanac

Astronomy

Dec. 04, 2016 Rise Set
Actual Time
Civil Twilight
Nautical Twilight
Astronomical Twilight
Moon
Length of Visible Light
Length of Day
Tomorrow will be .
, % of the Moon is Illuminated

Today's Extremes

State Highs State Lows

Community

WunderPhotos

Upload Photos

1,955,593 photos uploaded!

WunderBlog® & News

Nearby

Air Quality

  Air Quality AQ Index Pollutant
Not available.

Snow Depth

Station Depth Elevation

Earthquake Activity

City Distance Mag. Time & Date
Minimum magnitude displayed is 2.5.

Coastal Water Temperatures

Place Temperature

Stations

Nearby Weather Stations

Station Location Temp. Windchill Dew Point Humidity Wind Precip. Elev Updated Type
                   

Watches & Warnings

Winter Weather Advisory
Issued: 2:51 AM CST Dec. 4, 2016 – National Weather Service

... Winter Weather Advisory in effect until 3 PM CST this
afternoon...

The National Weather Service in Twin Cities/Chanhassen has issued
a Winter Weather Advisory for snow... which is in effect until 3
PM CST this afternoon.

* Expect snow to continue... diminishing around 3 PM.

* The heaviest snowfall rates will occur between 6 am this
morning and noon.

* Snow accumulations of 3 to 4 inches are expected... highest in
the eastern halves of the counties.

* Look for reduced visibilities at times.

* Plan on slippery Road conditions.

Precautionary/preparedness actions...

A Winter Weather Advisory for snow means periods of snow will
cause primarily travel difficulties. Be prepared for snow covered
roads and limited visibilities... and use caution while driving.
The latest Road conditions for the state you are calling from can
be obtained by calling 5 1 1.